sensor_id;sensor_type;location;lat;lon;timestamp;pressure;altitude;pressure_sealevel;temperature;humidity
22389;BME280;11362;48.102;11.620;2023-08-08T00:01:32;95498.22;;;23.86;40.60
22389;BME280;11362;48.102;11.620;2023-08-08T00:06:56;95481.56;;;23.86;40.61
22389;BME280;11362;48.102;11.620;2023-08-08T00:09:21;95480.75;;;23.86;40.55
22389;BME280;11362;48.102;11.620;2023-08-08T00:11:46;95482.75;;;23.85;40.61
22389;BME280;11362;48.102;11.620;2023-08-08T00:14:12;95491.06;;;23.85;40.63
22389;BME280;11362;48.102;11.620;2023-08-08T00:16:37;95483.16;;;23.84;40.74
22389;BME280;11362;48.102;11.620;2023-08-08T00:19:02;95479.97;;;23.85;40.54
22389;BME280;11362;48.102;11.620;2023-08-08T00:21:27;95476.38;;;23.85;40.72
22389;BME280;11362;48.102;11.620;2023-08-08T00:23:53;95466.50;;;23.84;40.63
22389;BME280;11362;48.102;11.620;2023-08-08T00:26:18;95477.59;;;23.84;40.70
22389;BME280;11362;48.102;11.620;2023-08-08T00:28:43;95469.69;;;23.82;40.77
22389;BME280;11362;48.102;11.620;2023-08-08T00:33:41;95466.50;;;23.84;40.59
22389;BME280;11362;48.102;11.620;2023-08-08T00:36:06;95471.25;;;23.83;40.60
22389;BME280;11362;48.102;11.620;2023-08-08T00:38:31;95472.06;;;23.84;40.70
22389;BME280;11362;48.102;11.620;2023-08-08T00:40:57;95465.28;;;23.85;40.64
22389;BME280;11362;48.102;11.620;2023-08-08T00:43:22;95467.31;;;23.84;40.56
22389;BME280;11362;48.102;11.620;2023-08-08T00:45:47;95461.75;;;23.84;40.63
22389;BME280;11362;48.102;11.620;2023-08-08T00:48:13;95459.38;;;23.83;40.60
22389;BME280;11362;48.102;11.620;2023-08-08T00:50:42;95461.75;;;23.84;40.65
22389;BME280;11362;48.102;11.620;2023-08-08T00:53:07;95460.16;;;23.83;40.54
22389;BME280;11362;48.102;11.620;2023-08-08T00:55:33;95466.91;;;23.82;40.76
22389;BME280;11362;48.102;11.620;2023-08-08T01:00:52;95463.38;;;23.82;40.58
22389;BME280;11362;48.102;11.620;2023-08-08T01:03:17;95458.59;;;23.82;40.75
22389;BME280;11362;48.102;11.620;2023-08-08T01:06:02;95463.38;;;23.82;40.71
22389;BME280;11362;48.102;11.620;2023-08-08T01:08:33;95458.22;;;23.80;40.69
22389;BME280;11362;48.102;11.620;2023-08-08T01:11:01;95461.00;;;23.80;40.77
22389;BME280;11362;48.102;11.620;2023-08-08T01:13:27;95457.00;;;23.81;40.64
22389;BME280;11362;48.102;11.620;2023-08-08T01:15:57;95453.84;;;23.83;40.65
22389;BME280;11362;48.102;11.620;2023-08-08T01:18:22;95453.03;;;23.82;40.94
22389;BME280;11362;48.102;11.620;2023-08-08T01:20:49;95462.56;;;23.81;40.49
22389;BME280;11362;48.102;11.620;2023-08-08T01:26:26;95458.22;;;23.80;40.64
22389;BME280;11362;48.102;11.620;2023-08-08T01:28:54;95449.91;;;23.80;40.87
22389;BME280;11362;48.102;11.620;2023-08-08T01:31:20;95451.47;;;23.81;40.76
22389;BME280;11362;48.102;11.620;2023-08-08T01:33:46;95447.50;;;23.82;40.66
22389;BME280;11362;48.102;11.620;2023-08-08T01:36:20;95447.50;;;23.82;40.77
22389;BME280;11362;48.102;11.620;2023-08-08T01:38:48;95441.16;;;23.82;40.69
22389;BME280;11362;48.102;11.620;2023-08-08T01:41:17;95441.16;;;23.82;40.34
22389;BME280;11362;48.102;11.620;2023-08-08T01:43:42;95440.38;;;23.81;40.43
22389;BME280;11362;48.102;11.620;2023-08-08T01:46:08;95436.41;;;23.82;40.65
22389;BME280;11362;48.102;11.620;2023-08-08T01:48:34;95436.41;;;23.82;40.75
22389;BME280;11362;48.102;11.620;2023-08-08T01:54:07;95425.28;;;23.82;40.76
22389;BME280;11362;48.102;11.620;2023-08-08T01:56:32;95425.28;;;23.82;40.47
22389;BME280;11362;48.102;11.620;2023-08-08T01:58:57;95426.09;;;23.83;40.82
22389;BME280;11362;48.102;11.620;2023-08-08T02:01:23;95430.84;;;23.82;40.78
22389;BME280;11362;48.102;11.620;2023-08-08T02:03:48;95427.66;;;23.84;40.72
22389;BME280;11362;48.102;11.620;2023-08-08T02:06:13;95426.88;;;23.83;40.72
22389;BME280;11362;48.102;11.620;2023-08-08T02:08:38;95425.28;;;23.82;40.65
22389;BME280;11362;48.102;11.620;2023-08-08T02:11:04;95423.72;;;23.81;40.73
22389;BME280;11362;48.102;11.620;2023-08-08T02:13:29;95422.97;;;23.81;40.59
22389;BME280;11362;48.102;11.620;2023-08-08T02:15:54;95423.72;;;23.81;40.67
22389;BME280;11362;48.102;11.620;2023-08-08T02:21:03;95422.97;;;23.81;40.81
22389;BME280;11362;48.102;11.620;2023-08-08T02:23:29;95420.59;;;23.79;40.66
22389;BME280;11362;48.102;11.620;2023-08-08T02:25:54;95422.16;;;23.80;40.67
22389;BME280;11362;48.102;11.620;2023-08-08T02:28:19;95419.03;;;23.78;40.81
22389;BME280;11362;48.102;11.620;2023-08-08T02:30:44;95421.34;;;23.80;40.73
22389;BME280;11362;48.102;11.620;2023-08-08T02:33:10;95416.25;;;23.78;40.83
22389;BME280;11362;48.102;11.620;2023-08-08T02:35:36;95412.63;;;23.81;40.88
22389;BME280;11362;48.102;11.620;2023-08-08T02:38:01;95413.03;;;23.80;40.76
22389;BME280;11362;48.102;11.620;2023-08-08T02:40:27;95415.81;;;23.80;40.79
22389;BME280;11362;48.102;11.620;2023-08-08T02:42:52;95407.13;;;23.78;40.74
22389;BME280;11362;48.102;11.620;2023-08-08T02:48:30;95420.59;;;23.79;40.77
22389;BME280;11362;48.102;11.620;2023-08-08T02:50:56;95415.03;;;23.79;40.73
22389;BME280;11362;48.102;11.620;2023-08-08T02:53:21;95410.25;;;23.80;40.73
22389;BME280;11362;48.102;11.620;2023-08-08T02:55:46;95415.03;;;23.79;40.65
22389;BME280;11362;48.102;11.620;2023-08-08T02:58:12;95419.38;;;23.80;40.78
22389;BME280;11362;48.102;11.620;2023-08-08T03:00:37;95419.75;;;23.82;40.72
22389;BME280;11362;48.102;11.620;2023-08-08T03:03:02;95425.28;;;23.82;40.64
22389;BME280;11362;48.102;11.620;2023-08-08T03:05:28;95423.72;;;23.81;40.70
22389;BME280;11362;48.102;11.620;2023-08-08T03:07:53;95425.28;;;23.82;40.78
22389;BME280;11362;48.102;11.620;2023-08-08T03:10:18;95420.19;;;23.81;40.68
22389;BME280;11362;48.102;11.620;2023-08-08T03:15:27;95417.81;;;23.79;40.76
22389;BME280;11362;48.102;11.620;2023-08-08T03:17:52;95421.78;;;23.78;40.72
22389;BME280;11362;48.102;11.620;2023-08-08T03:20:18;95425.34;;;23.79;40.73
22389;BME280;11362;48.102;11.620;2023-08-08T03:22:43;95414.25;;;23.79;40.80
22389;BME280;11362;48.102;11.620;2023-08-08T03:25:08;95419.03;;;23.78;40.85
22389;BME280;11362;48.102;11.620;2023-08-08T03:27:34;95419.38;;;23.80;40.71
22389;BME280;11362;48.102;11.620;2023-08-08T03:29:59;95417.81;;;23.79;40.84
22389;BME280;11362;48.102;11.620;2023-08-08T03:32:24;95413.03;;;23.80;40.79
22389;BME280;11362;48.102;11.620;2023-08-08T03:34:49;95420.59;;;23.79;40.82
22389;BME280;11362;48.102;11.620;2023-08-08T03:37:15;95413.03;;;23.80;40.55
22389;BME280;11362;48.102;11.620;2023-08-08T03:42:17;95411.06;;;23.80;40.63
22389;BME280;11362;48.102;11.620;2023-08-08T03:44:43;95411.06;;;23.80;40.72
22389;BME280;11362;48.102;11.620;2023-08-08T03:47:08;95415.81;;;23.80;40.75
22389;BME280;11362;48.102;11.620;2023-08-08T03:49:33;95405.50;;;23.80;40.68
22389;BME280;11362;48.102;11.620;2023-08-08T03:51:58;95405.16;;;23.78;40.86
22389;BME280;11362;48.102;11.620;2023-08-08T03:54:24;95407.94;;;23.78;40.71
22389;BME280;11362;48.102;11.620;2023-08-08T03:56:49;95407.94;;;23.78;40.69
22389;BME280;11362;48.102;11.620;2023-08-08T03:59:14;95411.91;;;23.77;40.75
22389;BME280;11362;48.102;11.620;2023-08-08T04:01:39;95408.75;;;23.75;40.67
22389;BME280;11362;48.102;11.620;2023-08-08T04:04:05;95410.31;;;23.76;40.84
22389;BME280;11362;48.102;11.620;2023-08-08T04:09:44;95416.66;;;23.77;40.80
22389;BME280;11362;48.102;11.620;2023-08-08T04:12:09;95411.91;;;23.77;40.82
22389;BME280;11362;48.102;11.620;2023-08-08T04:14:35;95413.88;;;23.77;40.84
22389;BME280;11362;48.102;11.620;2023-08-08T04:17:00;95413.06;;;23.76;40.74
22389;BME280;11362;48.102;11.620;2023-08-08T04:19:25;95417.44;;;23.77;40.85
22389;BME280;11362;48.102;11.620;2023-08-08T04:21:51;95421.41;;;23.76;40.89
22389;BME280;11362;48.102;11.620;2023-08-08T04:24:16;95420.22;;;23.77;40.86
22389;BME280;11362;48.102;11.620;2023-08-08T04:26:41;95429.31;;;23.78;40.79
22389;BME280;11362;48.102;11.620;2023-08-08T04:29:07;95433.28;;;23.77;40.81
22389;BME280;11362;48.102;11.620;2023-08-08T04:31:32;95424.56;;;23.78;40.82
22389;BME280;11362;48.102;11.620;2023-08-08T04:36:55;95437.63;;;23.78;40.67
22389;BME280;11362;48.102;11.620;2023-08-08T04:39:20;95434.88;;;23.78;40.85
22389;BME280;11362;48.102;11.620;2023-08-08T04:41:46;95430.13;;;23.78;40.78
22389;BME280;11362;48.102;11.620;2023-08-08T04:44:11;95428.91;;;23.79;40.77
22389;BME280;11362;48.102;11.620;2023-08-08T04:46:36;95428.13;;;23.79;40.86
22389;BME280;11362;48.102;11.620;2023-08-08T04:49:01;95440.78;;;23.80;40.77
22389;BME280;11362;48.102;11.620;2023-08-08T04:51:27;95428.13;;;23.79;40.84
22389;BME280;11362;48.102;11.620;2023-08-08T04:53:52;95421.78;;;23.78;40.79
22389;BME280;11362;48.102;11.620;2023-08-08T04:56:17;95417.41;;;23.81;40.83
22389;BME280;11362;48.102;11.620;2023-08-08T05:01:36;95425.28;;;23.82;41.19
22389;BME280;11362;48.102;11.620;2023-08-08T05:04:01;95431.63;;;23.86;41.26
22389;BME280;11362;48.102;11.620;2023-08-08T05:06:26;95433.19;;;23.87;41.10
22389;BME280;11362;48.102;11.620;2023-08-08T05:08:52;95430.84;;;23.86;41.02
22389;BME280;11362;48.102;11.620;2023-08-08T05:11:17;95431.63;;;23.86;41.15
22389;BME280;11362;48.102;11.620;2023-08-08T05:13:42;95435.19;;;23.83;41.53
22389;BME280;11362;48.102;11.620;2023-08-08T05:16:08;95426.88;;;23.83;41.12
22389;BME280;11362;48.102;11.620;2023-08-08T05:18:33;95431.25;;;23.84;41.53
22389;BME280;11362;48.102;11.620;2023-08-08T05:20:58;95431.63;;;23.86;41.69
22389;BME280;11362;48.102;11.620;2023-08-08T05:23:23;95424.47;;;23.85;41.55
22389;BME280;11362;48.102;11.620;2023-08-08T05:28:47;95434.38;;;23.90;41.73
22389;BME280;11362;48.102;11.620;2023-08-08T05:31:12;95424.84;;;23.91;41.68
22389;BME280;11362;48.102;11.620;2023-08-08T05:33:37;95411.72;;;23.91;41.51
22389;BME280;11362;48.102;11.620;2023-08-08T05:36:03;95409.75;;;23.92;41.75
22389;BME280;11362;48.102;11.620;2023-08-08T05:38:28;95410.16;;;23.90;41.66
22389;BME280;11362;48.102;11.620;2023-08-08T05:40:53;95413.31;;;23.92;41.30
22389;BME280;11362;48.102;11.620;2023-08-08T05:43:18;95415.72;;;23.90;41.72
22389;BME280;11362;48.102;11.620;2023-08-08T05:45:44;95420.50;;;23.90;41.71
22389;BME280;11362;48.102;11.620;2023-08-08T05:48:10;95407.03;;;23.88;41.70
22389;BME280;11362;48.102;11.620;2023-08-08T05:50:35;95406.66;;;23.86;41.83
22389;BME280;11362;48.102;11.620;2023-08-08T05:55:41;95435.19;;;23.87;41.71
22389;BME280;11362;48.102;11.620;2023-08-08T05:58:06;95437.19;;;23.86;41.73
22389;BME280;11362;48.102;11.620;2023-08-08T06:00:31;95435.56;;;23.85;41.71
22389;BME280;11362;48.102;11.620;2023-08-08T06:02:56;95436.38;;;23.86;41.67
22389;BME280;11362;48.102;11.620;2023-08-08T06:05:22;95432.81;;;23.85;41.69
22389;BME280;11362;48.102;11.620;2023-08-08T06:07:48;95438.34;;;23.85;41.37
22389;BME280;11362;48.102;11.620;2023-08-08T06:10:13;95433.59;;;23.86;41.69
22389;BME280;11362;48.102;11.620;2023-08-08T06:12:38;95437.94;;;23.87;41.63
22389;BME280;11362;48.102;11.620;2023-08-08T06:15:04;95435.97;;;23.87;41.84
22389;BME280;11362;48.102;11.620;2023-08-08T06:17:29;95435.97;;;23.87;41.67
22389;BME280;11362;48.102;11.620;2023-08-08T06:21:35;95442.28;;;23.88;41.65
22389;BME280;11362;48.102;11.620;2023-08-08T06:24:00;95430.03;;;23.85;41.38
22389;BME280;11362;48.102;11.620;2023-08-08T06:26:26;95444.31;;;23.84;41.28
22389;BME280;11362;48.102;11.620;2023-08-08T06:28:51;95439.56;;;23.84;41.52
22389;BME280;11362;48.102;11.620;2023-08-08T06:31:16;95434.41;;;23.86;41.50
22389;BME280;11362;48.102;11.620;2023-08-08T06:33:42;95435.97;;;23.87;41.56
22389;BME280;11362;48.102;11.620;2023-08-08T06:36:07;95434.78;;;23.88;41.47
22389;BME280;11362;48.102;11.620;2023-08-08T06:38:32;95430.78;;;23.89;41.52
22389;BME280;11362;48.102;11.620;2023-08-08T06:40:57;95435.13;;;23.90;41.53
22389;BME280;11362;48.102;11.620;2023-08-08T06:43:23;95438.72;;;23.91;41.72
22389;BME280;11362;48.102;11.620;2023-08-08T06:47:46;95432.75;;;23.92;41.79
22389;BME280;11362;48.102;11.620;2023-08-08T06:50:11;95433.94;;;23.91;41.69
22389;BME280;11362;48.102;11.620;2023-08-08T06:52:37;95433.94;;;23.91;41.99
22389;BME280;11362;48.102;11.620;2023-08-08T06:55:02;95432.75;;;23.92;41.98
22389;BME280;11362;48.102;11.620;2023-08-08T06:57:32;95435.53;;;23.92;42.06
22389;BME280;11362;48.102;11.620;2023-08-08T06:59:57;95431.53;;;23.93;41.96
22389;BME280;11362;48.102;11.620;2023-08-08T07:02:23;95440.28;;;23.92;41.29
22389;BME280;11362;48.102;11.620;2023-08-08T07:04:48;95430.38;;;23.91;40.72
22389;BME280;11362;48.102;11.620;2023-08-08T07:07:13;95429.97;;;23.92;41.12
22389;BME280;11362;48.102;11.620;2023-08-08T07:09:38;95426.00;;;23.93;41.16
22389;BME280;11362;48.102;11.620;2023-08-08T07:14:12;95421.22;;;23.94;41.37
22389;BME280;11362;48.102;11.620;2023-08-08T07:16:37;95422.78;;;23.95;41.31
22389;BME280;11362;48.102;11.620;2023-08-08T07:19:03;95420.41;;;23.97;41.34
22389;BME280;11362;48.102;11.620;2023-08-08T07:21:28;95423.59;;;23.95;41.62
22389;BME280;11362;48.102;11.620;2023-08-08T07:23:53;95419.19;;;23.98;41.58
22389;BME280;11362;48.102;11.620;2023-08-08T07:26:19;95425.91;;;24.00;41.55
22389;BME280;11362;48.102;11.620;2023-08-08T07:28:44;95420.34;;;24.00;41.56
22389;BME280;11362;48.102;11.620;2023-08-08T07:31:09;95423.13;;;24.00;41.47
22389;BME280;11362;48.102;11.620;2023-08-08T07:33:34;95427.06;;;24.03;41.67
22389;BME280;11362;48.102;11.620;2023-08-08T07:36:00;95422.28;;;24.03;41.71
22389;BME280;11362;48.102;11.620;2023-08-08T07:40:24;95425.44;;;24.05;41.74
22389;BME280;11362;48.102;11.620;2023-08-08T07:42:50;95424.66;;;24.05;41.82
22389;BME280;11362;48.102;11.620;2023-08-08T07:45:16;95422.28;;;24.03;41.77
22389;BME280;11362;48.102;11.620;2023-08-08T07:47:41;95414.31;;;24.05;41.84
22389;BME280;11362;48.102;11.620;2023-08-08T07:50:08;95419.47;;;24.07;41.72
22389;BME280;11362;48.102;11.620;2023-08-08T07:52:34;95418.69;;;24.06;41.90
22389;BME280;11362;48.102;11.620;2023-08-08T07:54:59;95411.94;;;24.07;41.80
22389;BME280;11362;48.102;11.620;2023-08-08T07:57:26;95413.50;;;24.08;41.79
22389;BME280;11362;48.102;11.620;2023-08-08T07:59:52;95399.63;;;24.08;41.87
22389;BME280;11362;48.102;11.620;2023-08-08T08:02:17;95406.75;;;24.09;41.76
22389;BME280;11362;48.102;11.620;2023-08-08T08:05:51;95394.44;;;24.10;41.84
22389;BME280;11362;48.102;11.620;2023-08-08T08:08:16;95389.69;;;24.11;41.91
22389;BME280;11362;48.102;11.620;2023-08-08T08:10:42;95386.13;;;24.10;41.91
22389;BME280;11362;48.102;11.620;2023-08-08T08:13:07;95377.78;;;24.10;41.85
22389;BME280;11362;48.102;11.620;2023-08-08T08:15:32;95388.47;;;24.12;42.12
22389;BME280;11362;48.102;11.620;2023-08-08T08:17:57;95379.34;;;24.11;41.86
22389;BME280;11362;48.102;11.620;2023-08-08T08:20:23;95376.59;;;24.11;41.71
22389;BME280;11362;48.102;11.620;2023-08-08T08:22:48;95378.94;;;24.13;41.80
22389;BME280;11362;48.102;11.620;2023-08-08T08:25:14;95372.59;;;24.12;41.94
22389;BME280;11362;48.102;11.620;2023-08-08T08:27:40;95380.50;;;24.14;41.84
22389;BME280;11362;48.102;11.620;2023-08-08T08:31:47;95377.38;;;24.12;41.98
22389;BME280;11362;48.102;11.620;2023-08-08T08:34:12;95375.75;;;24.14;41.88
22389;BME280;11362;48.102;11.620;2023-08-08T08:36:37;95369.00;;;24.15;42.00
22389;BME280;11362;48.102;11.620;2023-08-08T08:39:03;95361.88;;;24.14;41.84
22389;BME280;11362;48.102;11.620;2023-08-08T08:41:28;95357.53;;;24.13;41.96
22389;BME280;11362;48.102;11.620;2023-08-08T08:43:55;95376.13;;;24.16;41.96
22389;BME280;11362;48.102;11.620;2023-08-08T08:46:21;95358.31;;;24.14;41.91
22389;BME280;11362;48.102;11.620;2023-08-08T08:48:50;95369.41;;;24.14;41.81
22389;BME280;11362;48.102;11.620;2023-08-08T08:51:18;95367.50;;;24.11;41.74
22389;BME280;11362;48.102;11.620;2023-08-08T08:56:28;95364.72;;;24.11;41.44
22389;BME280;11362;48.102;11.620;2023-08-08T08:58:53;95352.41;;;24.12;41.56
22389;BME280;11362;48.102;11.620;2023-08-08T09:01:20;95352.41;;;24.12;41.66
22389;BME280;11362;48.102;11.620;2023-08-08T09:03:46;95369.81;;;24.12;41.74
22389;BME280;11362;48.102;11.620;2023-08-08T09:06:12;95354.38;;;24.11;41.96
22389;BME280;11362;48.102;11.620;2023-08-08T09:08:37;95342.06;;;24.12;41.89
22389;BME280;11362;48.102;11.620;2023-08-08T09:11:03;95344.84;;;24.12;42.09
22389;BME280;11362;48.102;11.620;2023-08-08T09:13:38;95353.97;;;24.13;42.19
22389;BME280;11362;48.102;11.620;2023-08-08T09:16:05;95339.28;;;24.12;42.05
22389;BME280;11362;48.102;11.620;2023-08-08T09:21:24;95348.00;;;24.14;42.15
22389;BME280;11362;48.102;11.620;2023-08-08T09:23:49;95348.00;;;24.14;42.47
22389;BME280;11362;48.102;11.620;2023-08-08T09:26:14;95348.72;;;24.18;42.64
22389;BME280;11362;48.102;11.620;2023-08-08T09:28:40;95349.53;;;24.19;42.55
22389;BME280;11362;48.102;11.620;2023-08-08T09:31:05;95350.28;;;24.19;42.24
22389;BME280;11362;48.102;11.620;2023-08-08T09:33:30;95347.53;;;24.19;42.28
22389;BME280;11362;48.102;11.620;2023-08-08T09:35:55;95334.44;;;24.20;42.39
22389;BME280;11362;48.102;11.620;2023-08-08T09:38:21;95323.34;;;24.20;42.30
22389;BME280;11362;48.102;11.620;2023-08-08T09:40:46;95326.47;;;24.22;42.64
22389;BME280;11362;48.102;11.620;2023-08-08T09:45:48;95325.31;;;24.19;42.30
22389;BME280;11362;48.102;11.620;2023-08-08T09:48:15;95338.44;;;24.19;42.22
22389;BME280;11362;48.102;11.620;2023-08-08T09:50:41;95330.50;;;24.17;42.03
22389;BME280;11362;48.102;11.620;2023-08-08T09:53:08;95319.41;;;24.17;41.90
22389;BME280;11362;48.102;11.620;2023-08-08T09:55:34;95321.03;;;24.15;42.15
22389;BME280;11362;48.102;11.620;2023-08-08T09:58:00;95329.28;;;24.18;41.89
22389;BME280;11362;48.102;11.620;2023-08-08T10:00:25;95317.44;;;24.18;41.10
22389;BME280;11362;48.102;11.620;2023-08-08T10:02:51;95324.25;;;24.13;40.32
22389;BME280;11362;48.102;11.620;2023-08-08T10:05:16;95326.22;;;24.13;40.90
22389;BME280;11362;48.102;11.620;2023-08-08T10:07:42;95329.78;;;24.13;40.90
22389;BME280;11362;48.102;11.620;2023-08-08T10:12:01;95310.38;;;24.13;40.80
22389;BME280;11362;48.102;11.620;2023-08-08T10:14:30;95319.47;;;24.14;40.79
22389;BME280;11362;48.102;11.620;2023-08-08T10:16:57;95325.00;;;24.14;40.44
22389;BME280;11362;48.102;11.620;2023-08-08T10:19:23;95312.75;;;24.11;40.61
22389;BME280;11362;48.102;11.620;2023-08-08T10:21:48;95304.44;;;24.11;40.64
22389;BME280;11362;48.102;11.620;2023-08-08T10:24:20;95319.88;;;24.12;40.50
22389;BME280;11362;48.102;11.620;2023-08-08T10:26:53;95314.75;;;24.11;40.87
22389;BME280;11362;48.102;11.620;2023-08-08T10:29:19;95306.78;;;24.13;40.74
22389;BME280;11362;48.102;11.620;2023-08-08T10:31:51;95313.13;;;24.13;40.72
22389;BME280;11362;48.102;11.620;2023-08-08T10:34:19;95309.22;;;24.11;40.84
22389;BME280;11362;48.102;11.620;2023-08-08T10:40:00;95323.44;;;24.13;40.91
22389;BME280;11362;48.102;11.620;2023-08-08T10:42:27;95311.94;;;24.14;40.87
22389;BME280;11362;48.102;11.620;2023-08-08T10:44:59;95317.47;;;24.14;41.14
22389;BME280;11362;48.102;11.620;2023-08-08T10:47:31;95321.81;;;24.15;41.00
22389;BME280;11362;48.102;11.620;2023-08-08T10:50:03;95317.03;;;24.16;40.91
22389;BME280;11362;48.102;11.620;2023-08-08T10:52:29;95312.69;;;24.15;40.77
22389;BME280;11362;48.102;11.620;2023-08-08T10:54:55;95307.94;;;24.15;40.72
22389;BME280;11362;48.102;11.620;2023-08-08T10:57:24;95312.69;;;24.15;40.35
22389;BME280;11362;48.102;11.620;2023-08-08T10:59:49;95310.72;;;24.15;40.29
22389;BME280;11362;48.102;11.620;2023-08-08T11:02:15;95304.81;;;24.13;40.40
22389;BME280;11362;48.102;11.620;2023-08-08T11:07:52;95305.94;;;24.16;40.62
22389;BME280;11362;48.102;11.620;2023-08-08T11:10:18;95306.75;;;24.16;40.69
22389;BME280;11362;48.102;11.620;2023-08-08T11:13:03;95298.78;;;24.18;40.73
22389;BME280;11362;48.102;11.620;2023-08-08T11:15:31;95298.78;;;24.18;40.82
22389;BME280;11362;48.102;11.620;2023-08-08T11:17:57;95294.78;;;24.19;40.80
22389;BME280;11362;48.102;11.620;2023-08-08T11:20:23;95303.50;;;24.21;40.86
22389;BME280;11362;48.102;11.620;2023-08-08T11:22:55;95297.94;;;24.21;41.01
22389;BME280;11362;48.102;11.620;2023-08-08T11:25:22;95298.72;;;24.22;41.06
22389;BME280;11362;48.102;11.620;2023-08-08T11:27:54;95292.75;;;24.23;41.02
22389;BME280;11362;48.102;11.620;2023-08-08T11:30:20;95291.19;;;24.22;41.17
22389;BME280;11362;48.102;11.620;2023-08-08T11:34:33;95289.97;;;24.23;41.03
22389;BME280;11362;48.102;11.620;2023-08-08T11:36:59;95292.34;;;24.25;41.20
22389;BME280;11362;48.102;11.620;2023-08-08T11:39:26;95284.78;;;24.25;41.15
22389;BME280;11362;48.102;11.620;2023-08-08T11:41:51;95287.56;;;24.25;41.41
22389;BME280;11362;48.102;11.620;2023-08-08T11:44:17;95284.00;;;24.25;41.38
22389;BME280;11362;48.102;11.620;2023-08-08T11:46:46;95278.88;;;24.23;41.45
22389;BME280;11362;48.102;11.620;2023-08-08T11:49:14;95286.34;;;24.26;41.57
22389;BME280;11362;48.102;11.620;2023-08-08T11:51:42;95273.25;;;24.27;41.65
22389;BME280;11362;48.102;11.620;2023-08-08T11:54:08;95274.09;;;24.24;41.59
22389;BME280;11362;48.102;11.620;2023-08-08T11:56:34;95266.97;;;24.23;41.72
22389;BME280;11362;48.102;11.620;2023-08-08T12:01:37;95253.41;;;24.28;41.47
22389;BME280;11362;48.102;11.620;2023-08-08T12:04:07;95270.06;;;24.28;41.79
22389;BME280;11362;48.102;11.620;2023-08-08T12:06:36;95258.97;;;24.28;41.89
22389;BME280;11362;48.102;11.620;2023-08-08T12:09:02;95255.75;;;24.30;41.69
22389;BME280;11362;48.102;11.620;2023-08-08T12:11:27;95250.19;;;24.30;41.87
22389;BME280;11362;48.102;11.620;2023-08-08T12:13:58;95249.44;;;24.29;41.77
22389;BME280;11362;48.102;11.620;2023-08-08T12:16:28;95265.22;;;24.32;41.86
22389;BME280;11362;48.102;11.620;2023-08-08T12:18:54;95259.69;;;24.32;42.04
22389;BME280;11362;48.102;11.620;2023-08-08T12:21:19;95254.13;;;24.32;41.98
22389;BME280;11362;48.102;11.620;2023-08-08T12:23:44;95247.81;;;24.32;42.05
22389;BME280;11362;48.102;11.620;2023-08-08T12:28:46;95260.47;;;24.33;41.33
22389;BME280;11362;48.102;11.620;2023-08-08T12:31:12;95266.81;;;24.33;41.85
22389;BME280;11362;48.102;11.620;2023-08-08T12:33:37;95254.13;;;24.32;41.34
22389;BME280;11362;48.102;11.620;2023-08-08T12:36:02;95244.59;;;24.33;41.60
22389;BME280;11362;48.102;11.620;2023-08-08T12:38:28;95248.56;;;24.32;41.46
22389;BME280;11362;48.102;11.620;2023-08-08T12:40:53;95248.56;;;24.32;41.38
22389;BME280;11362;48.102;11.620;2023-08-08T12:43:18;95248.16;;;24.34;41.47
22389;BME280;11362;48.102;11.620;2023-08-08T12:45:45;95239.03;;;24.33;41.37
22389;BME280;11362;48.102;11.620;2023-08-08T12:48:11;95246.94;;;24.35;41.51
22389;BME280;11362;48.102;11.620;2023-08-08T12:50:36;95250.13;;;24.33;41.41
22389;BME280;11362;48.102;11.620;2023-08-08T12:55:57;95235.84;;;24.35;41.58
22389;BME280;11362;48.102;11.620;2023-08-08T12:58:23;95248.09;;;24.37;41.45
22389;BME280;11362;48.102;11.620;2023-08-08T13:00:48;95238.97;;;24.37;41.56
22389;BME280;11362;48.102;11.620;2023-08-08T13:03:13;95248.09;;;24.37;41.51
22389;BME280;11362;48.102;11.620;2023-08-08T13:05:38;95229.88;;;24.36;41.71
22389;BME280;11362;48.102;11.620;2023-08-08T13:08:04;95238.22;;;24.36;41.86
22389;BME280;11362;48.102;11.620;2023-08-08T13:10:29;95223.53;;;24.36;41.63
22389;BME280;11362;48.102;11.620;2023-08-08T13:12:55;95234.28;;;24.34;41.73
22389;BME280;11362;48.102;11.620;2023-08-08T13:15:20;95231.09;;;24.35;41.74
22389;BME280;11362;48.102;11.620;2023-08-08T13:17:45;95242.19;;;24.35;41.74
22389;BME280;11362;48.102;11.620;2023-08-08T13:21:54;95238.63;;;24.35;41.52
22389;BME280;11362;48.102;11.620;2023-08-08T13:24:20;95246.16;;;24.34;41.71
22389;BME280;11362;48.102;11.620;2023-08-08T13:26:45;95233.06;;;24.35;41.66
22389;BME280;11362;48.102;11.620;2023-08-08T13:29:11;95233.06;;;24.35;41.53
22389;BME280;11362;48.102;11.620;2023-08-08T13:31:36;95247.75;;;24.35;41.60
22389;BME280;11362;48.102;11.620;2023-08-08T13:34:02;95236.66;;;24.35;41.47
22389;BME280;11362;48.102;11.620;2023-08-08T13:36:27;95216.75;;;24.37;41.47
22389;BME280;11362;48.102;11.620;2023-08-08T13:38:52;95216.75;;;24.37;41.03
22389;BME280;11362;48.102;11.620;2023-08-08T13:41:18;95213.22;;;24.36;41.18
22389;BME280;11362;48.102;11.620;2023-08-08T13:43:43;95207.28;;;24.34;41.25
22389;BME280;11362;48.102;11.620;2023-08-08T13:49:06;95208.03;;;24.38;40.79
22389;BME280;11362;48.102;11.620;2023-08-08T13:51:31;95208.03;;;24.38;40.73
22389;BME280;11362;48.102;11.620;2023-08-08T13:53:56;95201.25;;;24.39;40.43
22389;BME280;11362;48.102;11.620;2023-08-08T13:56:22;95200.03;;;24.40;40.19
22389;BME280;11362;48.102;11.620;2023-08-08T13:58:48;95205.97;;;24.42;40.61
22389;BME280;11362;48.102;11.620;2023-08-08T14:01:14;95216.63;;;24.44;40.26
22389;BME280;11362;48.102;11.620;2023-08-08T14:03:39;95206.34;;;24.44;40.13
22389;BME280;11362;48.102;11.620;2023-08-08T14:06:04;95197.59;;;24.46;40.00